Aérodrome :
LOGIN :

S'inscrire | Disclaimer

   EN    FR    IT 

 










Légende :    VFR   VFR Marginal   IFR   IFR Intensif   IFR Très Intensif
Visi : 
Plafond : 
>= 8 km
>= 3000ft
5 à 8 km
1000 à 3000 ft
1500m à 5 km
500 à 1000 ft
800 à 1500m
200 à 500 ft
< 800m
< 200 ft
Symboles :   Orages  Brouillard  Fortes neiges  Fortes précipitations  Vent > 20 kt
SIGMETs :   Divers  Orages  Givrage  Turbulence  Onde Orograph.  Cendres Volcan.






- Altitude de l'aérodrome : 506 ft
- Code IATA : GOT


ESGG - Landvetter

DERNIER METAR :
  • 170020Z 23018KT 9999 OVC007 04/03 Q0986 R21/29//95

METARs EXPIRÉS :
  • 162350Z 22017KT 9999 BKN008 OVC009 04/03 Q0985 R21/29//95
  • 162320Z 23014KT 9999 SCT013 BKN018 OVC029 03/02 Q0985 R21/29//95
  • 162250Z 21014KT 9999 BKN007 OVC030 03/02 Q0985 R21/29//95
  • 162220Z 21015KT 9999 BKN007 BKN022 OVC057 03/02 Q0985 R21/29//95
  • 162150Z 22013KT 9999 -RA SCT007 BKN010 BKN013 03/02 Q0985 R21/29//95

TAF TAF ESGG
Valide du 17 à 00h jusqu'au 18 à 00h UTC


162330Z 1700/1724 21015KT 9999 BKN020
TEMPO 1700/1702 4000 RA BKN007 BKN015CB
BECMG 1704/1707 24022G38KT
PROB40 1709/1724 SHRA BKN012 BKN020CB



MET'MAP, la Météo Aéronautique d'un coup d'oeil ! - Copyright ORBIFLY Décembre 2007 - Disclaimer

ORBIFLY MET'MAP TEAM :

Programmation & Développement : Alexandra Zaïnal
Sur une idée originale de : Baudouin d'Aumeries
Assistance à la programmation : Marc-Olivier Méhu
Soutien technique & logistique : Manuel Goepfert

Contact : metmap@orbifly.com




SOURCES & CREDITS :

   NOAA